createdAt,value
2022-11-10T06:31:29.072Z,1009.36
2022-11-10T06:32:29.070Z,1009.4
2022-11-10T06:33:29.088Z,1009.47
2022-11-10T06:34:29.081Z,1009.49
2022-11-10T06:35:29.096Z,1009.57
2022-11-10T06:36:29.119Z,1009.58
2022-11-10T06:37:29.121Z,1009.62
2022-11-10T06:38:29.118Z,1009.63
2022-11-10T06:39:29.112Z,1009.66
2022-11-10T06:40:29.123Z,1009.67
2022-11-10T06:41:29.160Z,1009.68
2022-11-10T06:42:29.168Z,1009.69
2022-11-10T06:43:29.241Z,1009.73
2022-11-10T06:44:29.161Z,1009.75
2022-11-10T06:45:29.169Z,1009.75
2022-11-10T06:46:29.184Z,1009.78
2022-11-10T06:47:29.224Z,1009.81
2022-11-10T06:48:29.195Z,1009.8
2022-11-10T06:49:29.417Z,1009.79
2022-11-10T06:50:29.206Z,1009.84
2022-11-10T06:51:29.221Z,1009.86
2022-11-10T06:52:29.228Z,1009.86
2022-11-10T06:53:29.682Z,1009.91
2022-11-10T06:54:29.263Z,1009.92
2022-11-10T06:55:29.249Z,1009.98
2022-11-10T06:56:29.253Z,1009.96
2022-11-10T06:57:29.273Z,1009.97
2022-11-10T06:58:29.276Z,1010.01
2022-11-10T06:59:29.281Z,1010.04
2022-11-10T07:00:29.312Z,1010.04
2022-11-10T07:01:29.316Z,1010.06
2022-11-10T07:02:29.396Z,1010.11
2022-11-10T07:03:29.373Z,1010.15
2022-11-10T07:04:29.415Z,1010.16
2022-11-10T07:05:29.333Z,1010.19
2022-11-10T07:06:29.438Z,1010.17
2022-11-10T07:07:29.349Z,1010.16
2022-11-10T07:08:29.363Z,1010.14
2022-11-10T07:09:29.377Z,1010.16
2022-11-10T07:10:29.419Z,1010.21
2022-11-10T07:11:29.418Z,1010.23
2022-11-10T07:12:29.399Z,1010.27
2022-11-10T07:13:29.399Z,1010.26
2022-11-10T07:14:29.411Z,1010.29
2022-11-10T07:15:29.421Z,1010.33
2022-11-10T07:16:29.429Z,1010.27
2022-11-10T07:17:29.442Z,1010.33
2022-11-10T07:18:29.479Z,1010.32
2022-11-10T07:19:29.480Z,1010.34
2022-11-10T07:20:29.471Z,1010.4
2022-11-10T07:21:29.501Z,1010.41
2022-11-10T07:22:29.537Z,1010.47
2022-11-10T07:23:29.495Z,1010.47
2022-11-10T07:24:29.523Z,1010.46
2022-11-10T07:25:29.508Z,1010.46
2022-11-10T07:26:29.560Z,1010.47
2022-11-10T07:27:29.526Z,1010.45
2022-11-10T07:28:29.531Z,1010.45
2022-11-10T07:29:29.541Z,1010.5
2022-11-10T07:30:29.574Z,1010.52
2022-11-10T07:31:29.565Z,1010.55
2022-11-10T07:32:29.576Z,1010.62
2022-11-10T07:33:29.612Z,1010.57
2022-11-10T07:34:29.644Z,1010.65
2022-11-10T07:35:29.637Z,1010.69
2022-11-10T07:36:29.600Z,1010.7
2022-11-10T07:37:29.617Z,1010.72
2022-11-10T07:38:29.630Z,1010.71
2022-11-10T07:39:29.633Z,1010.7
2022-11-10T07:40:29.640Z,1010.71
2022-11-10T07:41:29.738Z,1010.71
2022-11-10T07:42:29.662Z,1010.75
2022-11-10T07:43:29.680Z,1010.8
2022-11-10T07:44:29.683Z,1010.74
2022-11-10T07:45:29.717Z,1010.8
2022-11-10T07:46:29.713Z,1010.8
2022-11-10T07:47:29.730Z,1010.82
2022-11-10T07:48:29.790Z,1010.85
2022-11-10T07:49:29.787Z,1010.9
2022-11-10T07:50:29.741Z,1010.93
2022-11-10T07:51:29.860Z,1010.94
2022-11-10T07:52:29.760Z,1010.94
2022-11-10T07:53:29.772Z,1011
2022-11-10T07:54:29.785Z,1011.02
2022-11-10T07:55:29.783Z,1011.02
2022-11-10T07:56:29.798Z,1011.05
2022-11-10T07:57:29.814Z,1011.01
2022-11-10T07:58:29.820Z,1011.08
2022-11-10T07:59:29.822Z,1011.11
2022-11-10T08:00:29.853Z,1011.13
2022-11-10T08:01:29.900Z,1011.13
2022-11-10T08:02:29.882Z,1011.18
2022-11-10T08:03:29.864Z,1011.2
2022-11-10T08:04:29.891Z,1011.22
2022-11-10T08:05:29.893Z,1011.24
2022-11-10T08:06:33.491Z,1011.23
2022-11-10T08:07:30.048Z,1011.2
2022-11-10T08:08:29.911Z,1011.23
2022-11-10T08:09:30.545Z,1011.24
2022-11-10T08:10:29.978Z,1011.25
2022-11-10T08:11:29.951Z,1011.27
2022-11-10T08:12:33.571Z,1011.26
2022-11-10T08:13:29.964Z,1011.33
2022-11-10T08:14:29.972Z,1011.32
2022-11-10T08:15:30.185Z,1011.34
2022-11-10T08:16:30.032Z,1011.33
2022-11-10T08:17:30.354Z,1011.39
2022-11-10T08:18:35.013Z,1011.39
2022-11-10T08:19:30.429Z,1011.46
2022-11-10T08:20:30.100Z,1011.45
2022-11-10T08:21:30.083Z,1011.48
2022-11-10T08:22:30.082Z,1011.49
2022-11-10T08:23:30.153Z,1011.53
2022-11-10T08:24:30.086Z,1011.55
2022-11-10T08:25:34.377Z,1011.59
2022-11-10T08:26:30.150Z,1011.64
2022-11-10T08:27:30.135Z,1011.69
2022-11-10T08:28:30.150Z,1011.7
2022-11-10T08:29:30.191Z,1011.67
2022-11-10T08:30:30.241Z,1011.68
2022-11-10T08:31:30.204Z,1011.7
2022-11-10T08:32:30.210Z,1011.77
2022-11-10T08:33:30.190Z,1011.69
2022-11-10T08:34:30.200Z,1011.77
2022-11-10T08:35:30.211Z,1011.74
2022-11-10T08:36:30.219Z,1011.77
2022-11-10T08:37:30.235Z,1011.8
2022-11-10T08:38:30.240Z,1011.8
2022-11-10T08:39:38.876Z,1011.82
2022-11-10T08:40:30.266Z,1011.8
2022-11-10T08:41:30.275Z,1011.79
2022-11-10T08:42:30.285Z,1011.82
2022-11-10T08:43:30.313Z,1011.92
2022-11-10T08:44:30.317Z,1011.85
2022-11-10T08:45:30.329Z,1011.89
2022-11-10T08:46:30.435Z,1011.92
2022-11-10T08:47:30.366Z,1011.9
2022-11-10T08:48:30.565Z,1011.88
2022-11-10T08:49:30.979Z,1011.88
2022-11-10T08:50:31.804Z,1011.9
2022-11-10T08:51:33.709Z,1011.96
2022-11-10T08:52:30.399Z,1011.96
2022-11-10T08:53:30.429Z,1011.89
2022-11-10T08:54:30.429Z,1011.93
2022-11-10T08:55:30.474Z,1011.95
2022-11-10T08:56:30.455Z,1011.95
2022-11-10T08:57:30.478Z,1011.98
2022-11-10T08:58:30.471Z,1011.96
2022-11-10T08:59:30.483Z,1011.98
2022-11-10T09:00:30.497Z,1011.99
2022-11-10T09:01:30.505Z,1011.99
2022-11-10T09:02:30.526Z,1012.05
2022-11-10T09:03:30.536Z,1012.06
2022-11-10T09:04:30.599Z,1012
2022-11-10T09:05:30.552Z,1011.99
2022-11-10T09:06:30.727Z,1012.05
2022-11-10T09:07:30.574Z,1012.04
2022-11-10T09:08:30.595Z,1012.02
2022-11-10T09:09:30.682Z,1012.06
2022-11-10T09:10:30.623Z,1012.05
2022-11-10T09:11:31.251Z,1012.04
2022-11-10T09:12:31.252Z,1012.12
2022-11-10T09:13:31.564Z,1012.17
2022-11-10T09:14:30.670Z,1012.19
2022-11-10T09:15:30.876Z,1012.19
2022-11-10T09:16:30.702Z,1012.19
2022-11-10T09:17:30.699Z,1012.15
2022-11-10T09:18:30.731Z,1012.19
2022-11-10T09:19:30.800Z,1012.22
2022-11-10T09:20:30.738Z,1012.24
2022-11-10T09:21:30.749Z,1012.29
2022-11-10T09:22:30.781Z,1012.28
2022-11-10T09:23:30.977Z,1012.3
2022-11-10T09:24:31.586Z,1012.28
2022-11-10T09:25:30.797Z,1012.3
2022-11-10T09:26:30.816Z,1012.32
2022-11-10T09:27:30.849Z,1012.31
2022-11-10T09:28:30.841Z,1012.37
2022-11-10T09:29:30.864Z,1012.35
2022-11-10T09:30:30.875Z,1012.4
2022-11-10T09:31:30.879Z,1012.41
2022-11-10T09:32:30.897Z,1012.46
2022-11-10T09:33:30.908Z,1012.44
2022-11-10T09:34:30.926Z,1012.46
2022-11-10T09:35:30.933Z,1012.46
2022-11-10T09:36:30.951Z,1012.44
2022-11-10T09:37:30.960Z,1012.47
2022-11-10T09:38:30.966Z,1012.52
2022-11-10T09:39:30.997Z,1012.55
2022-11-10T09:40:30.999Z,1012.56
2022-11-10T09:41:31.014Z,1012.6
2022-11-10T09:42:31.055Z,1012.6
2022-11-10T09:43:31.087Z,1012.61
2022-11-10T09:44:31.062Z,1012.61
2022-11-10T09:45:33.956Z,1012.55
2022-11-10T09:46:31.174Z,1012.6
2022-11-10T09:48:31.119Z,1012.66
2022-11-10T09:49:31.121Z,1012.64
2022-11-10T09:50:31.133Z,1012.61
2022-11-10T09:51:31.149Z,1012.6
2022-11-10T09:52:31.177Z,1012.59
2022-11-10T09:53:31.199Z,1012.6
2022-11-10T09:54:31.203Z,1012.57
2022-11-10T09:55:31.224Z,1012.58
2022-11-10T09:56:31.233Z,1012.51
2022-11-10T09:57:31.237Z,1012.45
2022-11-10T09:58:31.306Z,1012.49
2022-11-10T09:59:31.287Z,1012.46
2022-11-10T10:00:31.275Z,1012.47
2022-11-10T10:01:31.308Z,1012.51
2022-11-10T10:02:31.323Z,1012.51
2022-11-10T10:03:31.317Z,1012.54
2022-11-10T10:04:31.331Z,1012.54
2022-11-10T10:05:31.347Z,1012.5
2022-11-10T10:06:43.944Z,1012.57
2022-11-10T10:07:31.400Z,1012.59
2022-11-10T10:08:31.384Z,1012.59
2022-11-10T10:09:31.410Z,1012.59
2022-11-10T10:10:31.415Z,1012.56
2022-11-10T10:11:31.432Z,1012.62
2022-11-10T10:12:31.445Z,1012.63
2022-11-10T10:13:31.455Z,1012.6
2022-11-10T10:14:31.483Z,1012.6
2022-11-10T10:15:31.519Z,1012.58
2022-11-10T10:16:31.509Z,1012.63
2022-11-10T10:17:31.519Z,1012.61
2022-11-10T10:18:31.567Z,1012.62
2022-11-10T10:19:31.546Z,1012.65
2022-11-10T10:20:31.584Z,1012.64
2022-11-10T10:21:31.582Z,1012.63
2022-11-10T10:22:31.584Z,1012.61
2022-11-10T10:23:54.316Z,1012.6
2022-11-10T10:24:31.643Z,1012.6
2022-11-10T10:25:31.629Z,1012.57
2022-11-10T10:26:31.656Z,1012.6
2022-11-10T10:27:31.663Z,1012.6
2022-11-10T10:28:31.681Z,1012.51
2022-11-10T10:29:36.975Z,1012.54
2022-11-10T10:30:31.697Z,1012.59
2022-11-10T10:31:31.760Z,1012.53
2022-11-10T10:32:31.725Z,1012.57
2022-11-10T10:33:31.744Z,1012.6
2022-11-10T10:34:31.763Z,1012.65
2022-11-10T10:35:31.778Z,1012.61
2022-11-10T10:36:31.799Z,1012.69
2022-11-10T10:37:31.824Z,1012.65
2022-11-10T10:38:31.821Z,1012.68
2022-11-10T10:39:31.834Z,1012.67
2022-11-10T10:40:31.850Z,1012.72
2022-11-10T10:41:31.860Z,1012.75
2022-11-10T10:42:31.887Z,1012.7
2022-11-10T10:43:31.890Z,1012.7
2022-11-10T10:44:31.909Z,1012.74
2022-11-10T10:45:31.978Z,1012.73
2022-11-10T10:46:35.599Z,1012.67
2022-11-10T10:47:31.975Z,1012.67
2022-11-10T10:48:31.976Z,1012.78
2022-11-10T10:49:32.017Z,1012.72
2022-11-10T10:50:31.999Z,1012.69
2022-11-10T10:51:32.016Z,1012.74
2022-11-10T10:52:32.021Z,1012.71
2022-11-10T10:53:32.038Z,1012.69
2022-11-10T10:54:32.049Z,1012.74
2022-11-10T10:55:32.063Z,1012.66
2022-11-10T10:56:32.087Z,1012.68
2022-11-10T10:57:32.095Z,1012.7
2022-11-10T10:58:32.115Z,1012.67
2022-11-10T10:59:32.126Z,1012.74
2022-11-10T11:00:32.176Z,1012.69
2022-11-10T11:01:32.240Z,1012.66
2022-11-10T11:02:32.175Z,1012.66
2022-11-10T11:03:32.220Z,1012.66
2022-11-10T11:04:32.212Z,1012.62
2022-11-10T11:05:32.211Z,1012.75
2022-11-10T11:06:32.283Z,1012.7
2022-11-10T11:07:32.242Z,1012.73
2022-11-10T11:08:32.265Z,1012.73
2022-11-10T11:09:32.282Z,1012.76
2022-11-10T11:10:32.292Z,1012.75
2022-11-10T11:11:32.309Z,1012.83
2022-11-10T11:12:32.322Z,1012.86
2022-11-10T11:13:32.361Z,1012.84
2022-11-10T11:14:32.369Z,1012.8
2022-11-10T11:15:32.370Z,1012.83
2022-11-10T11:16:32.385Z,1012.75
2022-11-10T11:17:33.039Z,1012.8
2022-11-10T11:18:32.412Z,1012.86
2022-11-10T11:19:32.453Z,1012.77
2022-11-10T11:20:32.662Z,1012.86
2022-11-10T11:21:33.066Z,1012.81
2022-11-10T11:22:32.676Z,1012.85
2022-11-10T11:23:33.904Z,1012.79
2022-11-10T11:24:32.550Z,1012.83
2022-11-10T11:25:33.260Z,1012.81
2022-11-10T11:26:32.551Z,1012.84
2022-11-10T11:27:32.558Z,1012.88
2022-11-10T11:28:32.568Z,1012.84
2022-11-10T11:29:32.580Z,1012.85
2022-11-10T11:30:32.611Z,1012.88
2022-11-10T11:31:32.629Z,1012.88
2022-11-10T11:32:32.647Z,1012.91
2022-11-10T11:33:32.682Z,1013
2022-11-10T11:34:32.657Z,1012.94
2022-11-10T11:35:32.708Z,1012.9
2022-11-10T11:36:32.700Z,1012.9
2022-11-10T11:37:32.710Z,1012.8
2022-11-10T11:38:32.731Z,1012.86
2022-11-10T11:39:32.745Z,1012.86
2022-11-10T11:40:32.756Z,1012.88
2022-11-10T11:41:32.773Z,1012.89
2022-11-10T11:42:32.796Z,1012.89
2022-11-10T11:43:32.809Z,1012.94
2022-11-10T11:44:32.829Z,1012.92
2022-11-10T11:45:32.867Z,1012.93
2022-11-10T11:46:32.860Z,1012.99
2022-11-10T11:47:33.103Z,1013.02
2022-11-10T11:48:32.888Z,1012.97
2022-11-10T11:49:32.909Z,1013.02
2022-11-10T11:50:32.926Z,1013.07
2022-11-10T11:51:32.981Z,1013.07
2022-11-10T11:52:32.953Z,1013.06
2022-11-10T11:53:32.981Z,1013.04
2022-11-10T11:54:33.029Z,1013.02
2022-11-10T11:55:33.015Z,1013.02
2022-11-10T11:56:33.037Z,1013.1
2022-11-10T11:57:37.166Z,1013.01
2022-11-10T11:58:33.067Z,1013.03
2022-11-10T11:59:33.082Z,1013.05
2022-11-10T12:00:33.096Z,1013.07
2022-11-10T12:01:33.111Z,1013.05
2022-11-10T12:02:33.166Z,1013.06
2022-11-10T12:03:33.143Z,1013.11
2022-11-10T12:04:33.162Z,1013.12
2022-11-10T12:05:33.180Z,1013.08
2022-11-10T12:06:33.224Z,1013.1
2022-11-10T12:07:33.235Z,1013.11
2022-11-10T12:08:33.227Z,1013.08
2022-11-10T12:09:33.260Z,1013.1
2022-11-10T12:10:33.273Z,1013.15
2022-11-10T12:11:33.295Z,1013.05
2022-11-10T12:12:33.301Z,1013.12
2022-11-10T12:13:33.314Z,1013.17
2022-11-10T12:14:33.341Z,1013.1
2022-11-10T12:15:33.348Z,1013.16
2022-11-10T12:16:33.364Z,1013.14
2022-11-10T12:17:33.376Z,1013.21
2022-11-10T12:18:33.396Z,1013.21
2022-11-10T12:19:33.415Z,1013.23
2022-11-10T12:20:33.435Z,1013.21
2022-11-10T12:21:33.455Z,1013.25
2022-11-10T12:22:33.463Z,1013.25
2022-11-10T12:23:33.509Z,1013.25
2022-11-10T12:24:33.508Z,1013.23
2022-11-10T12:25:33.529Z,1013.24
2022-11-10T12:26:33.536Z,1013.2
2022-11-10T12:27:33.568Z,1013.2
2022-11-10T12:28:33.564Z,1013.18
2022-11-10T12:29:33.598Z,1013.23
2022-11-10T12:30:33.803Z,1013.22
2022-11-10T12:31:33.617Z,1013.25
2022-11-10T12:32:33.639Z,1013.28
2022-11-10T12:33:33.651Z,1013.3
2022-11-10T12:34:33.673Z,1013.28
2022-11-10T12:35:33.700Z,1013.36
2022-11-10T12:36:33.707Z,1013.27
2022-11-10T12:37:33.714Z,1013.29
2022-11-10T12:38:33.733Z,1013.29
2022-11-10T12:39:33.836Z,1013.22
2022-11-10T12:40:36.006Z,1013.25
2022-11-10T12:41:33.790Z,1013.24
2022-11-10T12:42:33.810Z,1013.26
2022-11-10T12:43:33.829Z,1013.25
2022-11-10T12:44:33.839Z,1013.27
2022-11-10T12:45:33.857Z,1013.16
2022-11-10T12:46:33.878Z,1013.21
2022-11-10T12:47:33.889Z,1013.23
2022-11-10T12:48:33.906Z,1013.24
2022-11-10T12:49:33.922Z,1013.26
2022-11-10T12:50:33.941Z,1013.32
2022-11-10T12:51:33.959Z,1013.26
2022-11-10T12:52:33.981Z,1013.29
2022-11-10T12:53:33.998Z,1013.34
2022-11-10T12:54:34.032Z,1013.39
2022-11-10T12:55:34.086Z,1013.38
2022-11-10T12:56:34.049Z,1013.35
2022-11-10T12:57:34.070Z,1013.4
2022-11-10T12:58:34.088Z,1013.39
2022-11-10T12:59:34.123Z,1013.32
2022-11-10T13:00:34.141Z,1013.38
2022-11-10T13:01:34.315Z,1013.34
2022-11-10T13:02:34.155Z,1013.35
2022-11-10T13:03:34.263Z,1013.33
2022-11-10T13:04:34.210Z,1013.34
2022-11-10T13:05:34.228Z,1013.36
2022-11-10T13:06:34.257Z,1013.41
2022-11-10T13:07:34.249Z,1013.4
2022-11-10T13:08:34.272Z,1013.4
2022-11-10T13:09:34.278Z,1013.39
2022-11-10T13:10:34.304Z,1013.4
2022-11-10T13:11:34.339Z,1013.42
2022-11-10T13:12:34.342Z,1013.42
2022-11-10T13:13:34.357Z,1013.48
2022-11-10T13:14:34.373Z,1013.54
2022-11-10T13:15:34.390Z,1013.53
2022-11-10T13:16:34.406Z,1013.51
2022-11-10T13:17:34.429Z,1013.49
2022-11-10T13:18:34.453Z,1013.47
2022-11-10T13:19:34.470Z,1013.49
2022-11-10T13:20:34.489Z,1013.51
2022-11-10T13:21:34.534Z,1013.49
2022-11-10T13:22:34.519Z,1013.38
2022-11-10T13:23:34.539Z,1013.45
2022-11-10T13:24:34.660Z,1013.52
2022-11-10T13:25:34.586Z,1013.55
2022-11-10T13:26:34.603Z,1013.54
2022-11-10T13:27:34.704Z,1013.56
2022-11-10T13:28:34.638Z,1013.57
2022-11-10T13:29:34.660Z,1013.57
2022-11-10T13:30:34.670Z,1013.57
2022-11-10T13:31:34.693Z,1013.59
2022-11-10T13:32:34.705Z,1013.52
2022-11-10T13:33:34.732Z,1013.53
2022-11-10T13:34:34.734Z,1013.65
2022-11-10T13:35:34.903Z,1013.65
2022-11-10T13:36:35.014Z,1013.6
2022-11-10T13:37:34.789Z,1013.59
2022-11-10T13:38:35.021Z,1013.61
2022-11-10T13:39:34.849Z,1013.71
2022-11-10T13:40:35.443Z,1013.64
2022-11-10T13:41:34.855Z,1013.64
2022-11-10T13:42:34.864Z,1013.64
2022-11-10T13:43:34.913Z,1013.63
2022-11-10T13:44:34.899Z,1013.64
2022-11-10T13:45:34.924Z,1013.68
2022-11-10T13:46:34.931Z,1013.67
2022-11-10T13:47:35.053Z,1013.66
2022-11-10T13:48:34.957Z,1013.69
2022-11-10T13:49:34.989Z,1013.64
2022-11-10T13:50:35.002Z,1013.68
2022-11-10T13:51:35.011Z,1013.63
2022-11-10T13:52:35.019Z,1013.62
2022-11-10T13:53:35.041Z,1013.63
2022-11-10T13:54:35.163Z,1013.61
2022-11-10T13:55:35.065Z,1013.62
2022-11-10T13:56:35.077Z,1013.62
2022-11-10T13:57:35.096Z,1013.66
2022-11-10T13:58:35.135Z,1013.69
2022-11-10T13:59:35.155Z,1013.79
2022-11-10T14:00:35.346Z,1013.8
2022-11-10T14:01:35.160Z,1013.8
2022-11-10T14:02:35.162Z,1013.81
2022-11-10T14:03:35.266Z,1013.83
2022-11-10T14:04:35.298Z,1013.88
2022-11-10T14:05:35.222Z,1013.89
2022-11-10T14:06:35.278Z,1013.91
2022-11-10T14:07:35.245Z,1013.89
2022-11-10T14:08:35.248Z,1013.9
2022-11-10T14:09:35.274Z,1013.86
2022-11-10T14:10:35.285Z,1013.88
2022-11-10T14:11:35.304Z,1013.91
2022-11-10T14:12:35.309Z,1013.94
2022-11-10T14:13:35.319Z,1013.92
2022-11-10T14:14:35.336Z,1013.97
2022-11-10T14:15:35.371Z,1013.98
2022-11-10T14:16:35.376Z,1014.01
2022-11-10T14:17:35.393Z,1013.99
2022-11-10T14:18:35.401Z,1014.05
2022-11-10T14:19:35.411Z,1014.01
2022-11-10T14:20:35.420Z,1014
2022-11-10T14:21:35.458Z,1014.02
2022-11-10T14:22:35.455Z,1014.01
2022-11-10T14:23:35.458Z,1014.02
2022-11-10T14:24:35.486Z,1014.01
2022-11-10T14:25:35.504Z,1014.08
2022-11-10T14:26:35.508Z,1014.08
2022-11-10T14:27:35.525Z,1014.06
2022-11-10T14:28:35.536Z,1014.09
2022-11-10T14:29:35.559Z,1014.13
2022-11-10T14:30:35.571Z,1014.08
2022-11-10T14:31:35.772Z,1014.1
2022-11-10T14:32:35.599Z,1014.12
2022-11-10T14:33:35.596Z,1014.14
2022-11-10T14:34:35.614Z,1014.11
2022-11-10T14:35:35.626Z,1014.12
2022-11-10T14:36:35.658Z,1014.15
2022-11-10T14:37:35.667Z,1014.17
2022-11-10T14:38:35.680Z,1014.16
2022-11-10T14:39:35.684Z,1014.17
2022-11-10T14:40:35.717Z,1014.17
2022-11-10T14:41:35.721Z,1014.17
2022-11-10T14:42:35.735Z,1014.2
2022-11-10T14:43:35.764Z,1014.2
2022-11-10T14:44:35.754Z,1014.21
2022-11-10T14:45:35.773Z,1014.2
2022-11-10T14:46:38.228Z,1014.15
2022-11-10T14:47:35.916Z,1014.12
2022-11-10T14:48:35.799Z,1014.1
2022-11-10T14:49:35.923Z,1014.15
2022-11-10T14:50:35.837Z,1014.09
2022-11-10T14:51:35.876Z,1014.22
2022-11-10T14:52:35.882Z,1014.27
2022-11-10T14:53:35.890Z,1014.31
2022-11-10T14:54:35.921Z,1014.33
2022-11-10T14:55:35.894Z,1014.37
2022-11-10T14:56:35.906Z,1014.35
2022-11-10T14:57:35.938Z,1014.35
2022-11-10T14:58:35.947Z,1014.4
2022-11-10T14:59:35.951Z,1014.4
2022-11-10T15:00:35.978Z,1014.43
2022-11-10T15:01:35.979Z,1014.43
2022-11-10T15:02:36.011Z,1014.48
2022-11-10T15:03:36.133Z,1014.47
2022-11-10T15:04:36.026Z,1014.52
2022-11-10T15:05:36.044Z,1014.51
2022-11-10T15:06:36.084Z,1014.55
2022-11-10T15:07:36.091Z,1014.55
2022-11-10T15:08:36.406Z,1014.54
2022-11-10T15:09:36.131Z,1014.58
2022-11-10T15:10:36.132Z,1014.58
2022-11-10T15:11:36.147Z,1014.59
2022-11-10T15:12:40.945Z,1014.57
2022-11-10T15:13:36.142Z,1014.56
2022-11-10T15:14:36.134Z,1014.6
2022-11-10T15:15:36.161Z,1014.6
2022-11-10T15:16:36.178Z,1014.61
2022-11-10T15:17:36.184Z,1014.63
2022-11-10T15:18:36.189Z,1014.57
2022-11-10T15:19:36.315Z,1014.6
2022-11-10T15:20:36.207Z,1014.59
2022-11-10T15:21:36.224Z,1014.64
2022-11-10T15:22:36.241Z,1014.61
2022-11-10T15:23:36.265Z,1014.64
2022-11-10T15:24:36.463Z,1014.58
2022-11-10T15:25:36.289Z,1014.56
2022-11-10T15:26:36.286Z,1014.59
2022-11-10T15:27:36.302Z,1014.56
2022-11-10T15:28:36.308Z,1014.59
2022-11-10T15:29:36.371Z,1014.57
2022-11-10T15:30:36.331Z,1014.55
2022-11-10T15:31:36.347Z,1014.57
2022-11-10T15:32:36.362Z,1014.59
2022-11-10T15:33:36.374Z,1014.59
2022-11-10T15:34:36.377Z,1014.64
2022-11-10T15:35:36.515Z,1014.63
2022-11-10T15:36:36.401Z,1014.69
2022-11-10T15:37:36.421Z,1014.71
2022-11-10T15:38:36.429Z,1014.74
2022-11-10T15:39:36.519Z,1014.83
2022-11-10T15:40:36.452Z,1014.83
2022-11-10T15:41:36.463Z,1014.82
2022-11-10T15:42:36.483Z,1014.83
2022-11-10T15:43:36.493Z,1014.85
2022-11-10T15:44:36.497Z,1014.85
2022-11-10T15:45:36.512Z,1014.85
2022-11-10T15:46:36.522Z,1014.81
2022-11-10T15:47:36.536Z,1014.85
2022-11-10T15:48:36.545Z,1014.84
2022-11-10T15:49:36.559Z,1014.8
2022-11-10T15:50:36.564Z,1014.82
2022-11-10T15:51:36.717Z,1014.8
2022-11-10T15:52:36.606Z,1014.85
2022-11-10T15:53:36.607Z,1014.83
2022-11-10T15:54:36.621Z,1014.84
2022-11-10T15:55:36.628Z,1014.82
2022-11-10T15:56:36.639Z,1014.84
2022-11-10T15:57:36.644Z,1014.88
2022-11-10T15:58:36.664Z,1014.91
2022-11-10T15:59:36.668Z,1014.91
2022-11-10T16:00:36.692Z,1014.96
2022-11-10T16:01:36.746Z,1014.98
2022-11-10T16:02:36.719Z,1014.99
2022-11-10T16:03:36.720Z,1015.01
2022-11-10T16:04:36.731Z,1015.04
2022-11-10T16:05:36.738Z,1015
2022-11-10T16:06:36.766Z,1014.99
2022-11-10T16:07:36.875Z,1015.1
2022-11-10T16:08:36.770Z,1015.08
2022-11-10T16:09:36.784Z,1015.12
2022-11-10T16:10:36.792Z,1015.15
2022-11-10T16:11:36.805Z,1015.18
2022-11-10T16:12:36.816Z,1015.18
2022-11-10T16:13:36.823Z,1015.2
2022-11-10T16:14:36.837Z,1015.15
2022-11-10T16:15:36.847Z,1015.16
2022-11-10T16:16:36.856Z,1015.16
2022-11-10T16:17:36.870Z,1015.14
2022-11-10T16:18:40.013Z,1015.17
2022-11-10T16:19:36.895Z,1015.12
2022-11-10T16:20:36.907Z,1015.14
2022-11-10T16:21:36.911Z,1015.14
2022-11-10T16:22:36.925Z,1015.13
2022-11-10T16:23:37.065Z,1015.15
2022-11-10T16:24:36.946Z,1015.12
2022-11-10T16:25:36.957Z,1015.16
2022-11-10T16:26:36.969Z,1015.15
2022-11-10T16:27:36.992Z,1015.15
2022-11-10T16:28:36.998Z,1015.11
2022-11-10T16:29:37.003Z,1015.1
2022-11-10T16:30:37.010Z,1015.07
2022-11-10T16:31:37.015Z,1015.06
2022-11-10T16:32:37.131Z,1015.09
2022-11-10T16:33:37.049Z,1015.07
2022-11-10T16:34:37.069Z,1015.07
2022-11-10T16:35:37.065Z,1015.08
2022-11-10T16:36:37.077Z,1015.05
2022-11-10T16:37:37.288Z,1015.03
2022-11-10T16:38:37.098Z,1015.12
2022-11-10T16:39:37.311Z,1015.14
2022-11-10T16:40:37.113Z,1015.24
2022-11-10T16:41:37.128Z,1015.26
2022-11-10T16:42:37.131Z,1015.32
2022-11-10T16:43:37.144Z,1015.27
2022-11-10T16:44:41.368Z,1015.26
2022-11-10T16:45:56.372Z,1015.26
2022-11-10T16:46:37.182Z,1015.27
2022-11-10T16:47:37.225Z,1015.26
2022-11-10T16:48:37.212Z,1015.23
2022-11-10T16:49:37.221Z,1015.21
2022-11-10T16:50:37.215Z,1015.23
2022-11-10T16:51:37.238Z,1015.23
2022-11-10T16:52:37.232Z,1015.22
2022-11-10T16:53:37.254Z,1015.22
2022-11-10T16:54:37.279Z,1015.25
2022-11-10T16:55:37.401Z,1015.23
2022-11-10T16:56:37.298Z,1015.24
2022-11-10T16:57:39.988Z,1015.26
2022-11-10T16:58:37.312Z,1015.27
2022-11-10T16:59:37.313Z,1015.23
2022-11-10T17:00:38.555Z,1015.29
2022-11-10T17:01:37.375Z,1015.31
2022-11-10T17:02:37.347Z,1015.35
2022-11-10T17:03:37.347Z,1015.37
2022-11-10T17:04:37.368Z,1015.4
2022-11-10T17:05:37.379Z,1015.42
2022-11-10T17:06:37.624Z,1015.45
2022-11-10T17:07:37.391Z,1015.45
2022-11-10T17:08:37.401Z,1015.45
2022-11-10T17:09:37.409Z,1015.39
2022-11-10T17:10:37.492Z,1015.41
2022-11-10T17:11:37.658Z,1015.43
2022-11-10T17:12:37.448Z,1015.42
2022-11-10T17:13:37.451Z,1015.43
2022-11-10T17:14:37.455Z,1015.47
2022-11-10T17:15:37.464Z,1015.47
2022-11-10T17:16:37.479Z,1015.46
2022-11-10T17:17:37.492Z,1015.51
2022-11-10T17:18:37.497Z,1015.49
2022-11-10T17:19:37.579Z,1015.54
2022-11-10T17:20:37.515Z,1015.58
2022-11-10T17:21:37.524Z,1015.57
2022-11-10T17:22:37.544Z,1015.61
2022-11-10T17:23:37.608Z,1015.63
2022-11-10T17:24:37.560Z,1015.67
2022-11-10T17:25:37.585Z,1015.63
2022-11-10T17:26:37.627Z,1015.59
2022-11-10T17:27:38.078Z,1015.55
2022-11-10T17:28:37.596Z,1015.55
2022-11-10T17:29:37.611Z,1015.55
2022-11-10T17:30:37.633Z,1015.57
2022-11-10T17:31:37.644Z,1015.59
2022-11-10T17:33:03.421Z,1015.62
2022-11-10T17:33:37.652Z,1015.59
2022-11-10T17:34:37.660Z,1015.6
2022-11-10T17:35:40.256Z,1015.57
2022-11-10T17:36:37.675Z,1015.58
2022-11-10T17:37:37.694Z,1015.54
2022-11-10T17:38:37.992Z,1015.57
2022-11-10T17:39:37.711Z,1015.51
2022-11-10T17:40:37.728Z,1015.54
2022-11-10T17:41:37.727Z,1015.54
2022-11-10T17:42:37.747Z,1015.55
2022-11-10T17:43:40.402Z,1015.57
2022-11-10T17:44:37.764Z,1015.56
2022-11-10T17:45:37.772Z,1015.55
2022-11-10T17:46:37.774Z,1015.56
2022-11-10T17:47:37.800Z,1015.63
2022-11-10T17:48:37.822Z,1015.65
2022-11-10T17:49:37.810Z,1015.71
2022-11-10T17:50:37.842Z,1015.76
2022-11-10T17:51:37.828Z,1015.76
2022-11-10T17:52:37.836Z,1015.8
2022-11-10T17:53:37.842Z,1015.78
2022-11-10T17:54:37.858Z,1015.82
2022-11-10T17:55:37.870Z,1015.8
2022-11-10T17:56:37.874Z,1015.85
2022-11-10T17:57:37.884Z,1015.86
2022-11-10T17:58:37.902Z,1015.88
2022-11-10T17:59:38.032Z,1015.86
2022-11-10T18:00:38.183Z,1015.9
2022-11-10T18:01:37.961Z,1015.91
2022-11-10T18:02:37.942Z,1015.93
2022-11-10T18:03:37.952Z,1015.95
2022-11-10T18:04:37.958Z,1015.98
2022-11-10T18:05:37.964Z,1016.1
2022-11-10T18:06:37.981Z,1016.09
2022-11-10T18:07:37.979Z,1016.1
2022-11-10T18:08:37.991Z,1016.12
2022-11-10T18:09:38.005Z,1016.14
2022-11-10T18:10:38.022Z,1016.12
2022-11-10T18:11:38.016Z,1016.1
2022-11-10T18:12:38.042Z,1016.06
2022-11-10T18:13:38.050Z,1016.04
2022-11-10T18:14:38.049Z,1016.1
2022-11-10T18:15:38.213Z,1016.1
2022-11-10T18:16:38.292Z,1016.09
2022-11-10T18:17:38.082Z,1016.07
2022-11-10T18:18:38.093Z,1016.1
2022-11-10T18:19:38.098Z,1016.08
2022-11-10T18:20:38.312Z,1016.09
2022-11-10T18:21:38.139Z,1016.12
2022-11-10T18:22:38.161Z,1016.12
2022-11-10T18:23:38.142Z,1016.15
2022-11-10T18:24:38.171Z,1016.17
2022-11-10T18:25:38.167Z,1016.15
2022-11-10T18:26:38.203Z,1016.16
2022-11-10T18:27:38.208Z,1016.14
2022-11-10T18:28:38.217Z,1016.13
2022-11-10T18:29:38.220Z,1016.15
2022-11-10T18:30:38.240Z,1016.13
2022-11-10T18:31:38.361Z,1016.15
2022-11-10T18:32:38.230Z,1016.12
2022-11-10T18:33:38.256Z,1016.15
2022-11-10T18:34:38.243Z,1016.09
2022-11-10T18:35:38.260Z,1016.13
2022-11-10T18:36:38.261Z,1016.04
2022-11-10T18:37:39.321Z,1016.1
2022-11-10T18:38:38.280Z,1016.11
2022-11-10T18:39:38.294Z,1016.07
2022-11-10T18:40:38.983Z,1016.03